sensor_id;sensor_type;location;lat;lon;timestamp;pressure;altitude;pressure_sealevel;temperature;humidity
9187;BME280;7273;48.902;9.410;2023-07-31T00:00:35;98080.94;;;17.24;65.56
9187;BME280;7273;48.902;9.410;2023-07-31T00:03:01;98086.72;;;17.23;65.54
9187;BME280;7273;48.902;9.410;2023-07-31T00:05:27;98080.75;;;17.21;65.56
9187;BME280;7273;48.902;9.410;2023-07-31T00:07:52;98078.66;;;17.18;65.59
9187;BME280;7273;48.902;9.410;2023-07-31T00:10:20;98086.19;;;17.12;65.65
9187;BME280;7273;48.902;9.410;2023-07-31T00:12:46;98081.34;;;17.01;65.96
9187;BME280;7273;48.902;9.410;2023-07-31T00:15:13;98071.53;;;17.00;65.96
9187;BME280;7273;48.902;9.410;2023-07-31T00:17:39;98076.38;;;17.03;65.87
9187;BME280;7273;48.902;9.410;2023-07-31T00:20:05;98072.81;;;17.02;65.77
9187;BME280;7273;48.902;9.410;2023-07-31T00:22:31;98075.88;;;17.01;65.93
9187;BME280;7273;48.902;9.410;2023-07-31T00:24:57;98063.97;;;16.97;65.90
9187;BME280;7273;48.902;9.410;2023-07-31T00:27:23;98067.81;;;16.96;65.83
9187;BME280;7273;48.902;9.410;2023-07-31T00:29:49;98071.69;;;16.95;65.75
9187;BME280;7273;48.902;9.410;2023-07-31T00:32:14;98083.22;;;16.83;65.82
9187;BME280;7273;48.902;9.410;2023-07-31T00:34:40;98072.78;;;16.85;65.74
9187;BME280;7273;48.902;9.410;2023-07-31T00:37:06;98069.25;;;16.85;65.78
9187;BME280;7273;48.902;9.410;2023-07-31T00:39:33;98073.75;;;16.81;65.85
9187;BME280;7273;48.902;9.410;2023-07-31T00:41:59;98077.25;;;16.81;65.80
9187;BME280;7273;48.902;9.410;2023-07-31T00:44:24;98089.00;;;16.82;65.70
9187;BME280;7273;48.902;9.410;2023-07-31T00:46:50;98083.53;;;16.82;65.70
9187;BME280;7273;48.902;9.410;2023-07-31T00:49:16;98086.59;;;16.80;65.59
9187;BME280;7273;48.902;9.410;2023-07-31T00:51:42;98085.91;;;16.75;65.80
9187;BME280;7273;48.902;9.410;2023-07-31T00:54:07;98082.41;;;16.74;65.80
9187;BME280;7273;48.902;9.410;2023-07-31T00:56:34;98081.09;;;16.72;65.90
9187;BME280;7273;48.902;9.410;2023-07-31T00:58:59;98080.91;;;16.68;66.12
9187;BME280;7273;48.902;9.410;2023-07-31T01:01:25;98076.22;;;16.60;66.24
9187;BME280;7273;48.902;9.410;2023-07-31T01:03:52;98083.78;;;16.63;65.98
9187;BME280;7273;48.902;9.410;2023-07-31T01:09:07;98084.72;;;16.59;66.26
9187;BME280;7273;48.902;9.410;2023-07-31T01:11:45;98073.75;;;16.50;66.21
9187;BME280;7273;48.902;9.410;2023-07-31T01:14:12;98081.31;;;16.53;66.26
9187;BME280;7273;48.902;9.410;2023-07-31T01:16:38;98078.72;;;16.48;66.32
9187;BME280;7273;48.902;9.410;2023-07-31T01:19:06;98081.88;;;16.42;66.57
9187;BME280;7273;48.902;9.410;2023-07-31T01:21:41;98071.66;;;16.47;66.35
9187;BME280;7273;48.902;9.410;2023-07-31T01:26:48;98067.56;;;16.36;66.54
9187;BME280;7273;48.902;9.410;2023-07-31T01:29:25;98062.59;;;16.38;66.70
9187;BME280;7273;48.902;9.410;2023-07-31T01:31:53;98051.69;;;16.38;66.47
9187;BME280;7273;48.902;9.410;2023-07-31T01:34:21;98053.59;;;16.38;66.40
9187;BME280;7273;48.902;9.410;2023-07-31T01:36:47;98045.53;;;16.33;66.56
9187;BME280;7273;48.902;9.410;2023-07-31T01:39:12;98039.59;;;16.31;66.40
9187;BME280;7273;48.902;9.410;2023-07-31T01:41:38;98031.22;;;16.27;66.61
9187;BME280;7273;48.902;9.410;2023-07-31T01:44:04;98024.97;;;16.27;66.67
9187;BME280;7273;48.902;9.410;2023-07-31T01:46:29;98026.88;;;16.26;66.50
9187;BME280;7273;48.902;9.410;2023-07-31T01:48:55;98030.25;;;16.23;66.57
9187;BME280;7273;48.902;9.410;2023-07-31T01:51:20;98030.56;;;16.22;66.43
9187;BME280;7273;48.902;9.410;2023-07-31T01:53:45;98041.81;;;16.20;66.54
9187;BME280;7273;48.902;9.410;2023-07-31T01:56:11;98036.97;;;16.17;66.71
9187;BME280;7273;48.902;9.410;2023-07-31T01:58:36;98037.25;;;16.15;66.84
9187;BME280;7273;48.902;9.410;2023-07-31T02:01:02;98030.19;;;16.14;66.84
9187;BME280;7273;48.902;9.410;2023-07-31T02:03:27;98028.28;;;16.15;66.87
9187;BME280;7273;48.902;9.410;2023-07-31T02:05:53;98020.88;;;16.15;66.77
9187;BME280;7273;48.902;9.410;2023-07-31T02:08:19;98025.88;;;16.13;66.82
9187;BME280;7273;48.902;9.410;2023-07-31T02:10:44;98021.50;;;16.12;67.01
9187;BME280;7273;48.902;9.410;2023-07-31T02:13:09;98018.78;;;16.12;67.08
9187;BME280;7273;48.902;9.410;2023-07-31T02:15:35;98020.41;;;16.13;66.91
9187;BME280;7273;48.902;9.410;2023-07-31T02:18:00;98006.28;;;16.11;66.98
9187;BME280;7273;48.902;9.410;2023-07-31T02:20:26;98007.88;;;16.12;66.92
9187;BME280;7273;48.902;9.410;2023-07-31T02:22:51;98004.03;;;16.13;66.90
9187;BME280;7273;48.902;9.410;2023-07-31T02:25:17;97998.59;;;16.13;66.89
9187;BME280;7273;48.902;9.410;2023-07-31T02:27:42;98006.78;;;16.13;66.92
9187;BME280;7273;48.902;9.410;2023-07-31T02:30:08;98003.22;;;16.13;66.78
9187;BME280;7273;48.902;9.410;2023-07-31T02:32:34;98008.19;;;16.11;66.85
9187;BME280;7273;48.902;9.410;2023-07-31T02:34:59;97994.53;;;16.11;67.08
9187;BME280;7273;48.902;9.410;2023-07-31T02:37:25;97996.19;;;16.12;66.97
9187;BME280;7273;48.902;9.410;2023-07-31T02:39:50;98000.81;;;16.11;66.98
9187;BME280;7273;48.902;9.410;2023-07-31T02:42:16;98004.81;;;16.14;67.06
9187;BME280;7273;48.902;9.410;2023-07-31T02:44:41;98002.09;;;16.14;66.99
9187;BME280;7273;48.902;9.410;2023-07-31T02:47:06;97991.50;;;16.12;66.93
9187;BME280;7273;48.902;9.410;2023-07-31T02:49:32;97982.22;;;16.13;67.16
9187;BME280;7273;48.902;9.410;2023-07-31T02:51:57;97986.53;;;16.14;66.86
9187;BME280;7273;48.902;9.410;2023-07-31T02:54:23;97978.66;;;16.13;67.06
9187;BME280;7273;48.902;9.410;2023-07-31T02:56:48;97969.19;;;16.10;67.11
9187;BME280;7273;48.902;9.410;2023-07-31T02:59:15;97965.84;;;16.13;66.92
9187;BME280;7273;48.902;9.410;2023-07-31T03:01:40;97970.16;;;16.14;67.13
9187;BME280;7273;48.902;9.410;2023-07-31T03:04:06;97974.34;;;16.12;67.40
9187;BME280;7273;48.902;9.410;2023-07-31T03:06:32;97965.53;;;16.15;67.06
9187;BME280;7273;48.902;9.410;2023-07-31T03:08:57;97966.31;;;16.15;67.07
9187;BME280;7273;48.902;9.410;2023-07-31T03:11:23;97965.53;;;16.15;67.06
9187;BME280;7273;48.902;9.410;2023-07-31T03:13:48;97969.03;;;16.15;67.27
9187;BME280;7273;48.902;9.410;2023-07-31T03:16:13;97970.50;;;16.13;67.24
9187;BME280;7273;48.902;9.410;2023-07-31T03:18:39;97975.63;;;16.14;67.30
9187;BME280;7273;48.902;9.410;2023-07-31T03:21:04;97969.19;;;16.10;67.43
9187;BME280;7273;48.902;9.410;2023-07-31T03:23:30;97990.41;;;16.13;67.21
9187;BME280;7273;48.902;9.410;2023-07-31T03:26:00;97989.28;;;16.14;67.18
9187;BME280;7273;48.902;9.410;2023-07-31T03:28:25;97985.72;;;16.14;67.15
9187;BME280;7273;48.902;9.410;2023-07-31T03:30:52;97986.03;;;16.12;67.40
9187;BME280;7273;48.902;9.410;2023-07-31T03:33:17;97981.41;;;16.13;67.23
9187;BME280;7273;48.902;9.410;2023-07-31T03:35:43;97969.34;;;16.14;67.27
9187;BME280;7273;48.902;9.410;2023-07-31T03:38:08;97975.63;;;16.14;67.23
9187;BME280;7273;48.902;9.410;2023-07-31T03:40:34;97983.00;;;16.14;67.27
9187;BME280;7273;48.902;9.410;2023-07-31T03:42:59;97991.00;;;16.10;67.73
9187;BME280;7273;48.902;9.410;2023-07-31T03:45:24;97994.53;;;16.11;67.58
9187;BME280;7273;48.902;9.410;2023-07-31T03:47:50;97986.69;;;16.09;67.57
9187;BME280;7273;48.902;9.410;2023-07-31T03:50:15;97987.00;;;16.08;67.53
9187;BME280;7273;48.902;9.410;2023-07-31T03:52:41;97981.53;;;16.08;67.57
9187;BME280;7273;48.902;9.410;2023-07-31T03:55:07;97983.94;;;16.09;67.49
9187;BME280;7273;48.902;9.410;2023-07-31T03:57:32;97985.25;;;16.12;67.50
9187;BME280;7273;48.902;9.410;2023-07-31T03:59:58;97988.44;;;16.05;67.73
9187;BME280;7273;48.902;9.410;2023-07-31T04:02:23;97988.13;;;16.07;67.53
9187;BME280;7273;48.902;9.410;2023-07-31T04:04:49;97989.22;;;16.06;67.47
9187;BME280;7273;48.902;9.410;2023-07-31T04:07:14;97987.13;;;16.03;67.60
9187;BME280;7273;48.902;9.410;2023-07-31T04:09:39;97978.94;;;16.03;67.52
9187;BME280;7273;48.902;9.410;2023-07-31T04:12:05;97983.91;;;16.01;67.71
9187;BME280;7273;48.902;9.410;2023-07-31T04:14:30;97979.72;;;15.95;67.80
9187;BME280;7273;48.902;9.410;2023-07-31T04:16:56;97980.03;;;15.93;67.85
9187;BME280;7273;48.902;9.410;2023-07-31T04:19:21;97975.53;;;15.97;67.62
9187;BME280;7273;48.902;9.410;2023-07-31T04:21:46;97983.44;;;15.99;67.82
9187;BME280;7273;48.902;9.410;2023-07-31T04:24:12;97982.31;;;16.00;67.76
9187;BME280;7273;48.902;9.410;2023-07-31T04:26:37;97976.53;;;16.01;67.59
9187;BME280;7273;48.902;9.410;2023-07-31T04:29:02;97968.34;;;16.01;67.62
9187;BME280;7273;48.902;9.410;2023-07-31T04:31:28;97969.94;;;16.02;67.79
9187;BME280;7273;48.902;9.410;2023-07-31T04:33:53;97973.81;;;16.01;67.94
9187;BME280;7273;48.902;9.410;2023-07-31T04:36:18;97969.63;;;16.04;67.73
9187;BME280;7273;48.902;9.410;2023-07-31T04:38:44;97972.06;;;16.05;67.80
9187;BME280;7273;48.902;9.410;2023-07-31T04:41:09;97969.03;;;16.07;67.70
9187;BME280;7273;48.902;9.410;2023-07-31T04:43:35;97961.00;;;16.10;67.69
9187;BME280;7273;48.902;9.410;2023-07-31T04:46:00;97960.06;;;16.15;67.74
9187;BME280;7273;48.902;9.410;2023-07-31T04:48:25;97972.25;;;16.17;67.64
9187;BME280;7273;48.902;9.410;2023-07-31T04:50:51;97970.34;;;16.18;67.60
9187;BME280;7273;48.902;9.410;2023-07-31T04:53:16;97975.31;;;16.16;67.72
9187;BME280;7273;48.902;9.410;2023-07-31T04:55:41;97966.66;;;16.23;67.55
9187;BME280;7273;48.902;9.410;2023-07-31T04:58:07;97971.50;;;16.26;67.59
9187;BME280;7273;48.902;9.410;2023-07-31T05:00:32;97969.25;;;16.28;67.66
9187;BME280;7273;48.902;9.410;2023-07-31T05:02:58;97965.91;;;16.31;67.49
9187;BME280;7273;48.902;9.410;2023-07-31T05:05:23;97967.03;;;16.30;67.71
9187;BME280;7273;48.902;9.410;2023-07-31T05:07:48;97960.78;;;16.38;67.57
9187;BME280;7273;48.902;9.410;2023-07-31T05:10:14;97953.41;;;16.38;67.53
9187;BME280;7273;48.902;9.410;2023-07-31T05:12:39;97951.03;;;16.45;67.52
9187;BME280;7273;48.902;9.410;2023-07-31T05:15:05;97957.97;;;16.51;67.42
9187;BME280;7273;48.902;9.410;2023-07-31T05:17:31;97959.25;;;16.54;67.43
9187;BME280;7273;48.902;9.410;2023-07-31T05:19:56;97953.97;;;16.57;67.36
9187;BME280;7273;48.902;9.410;2023-07-31T05:22:21;97964.25;;;16.60;67.42
9187;BME280;7273;48.902;9.410;2023-07-31T05:24:47;97962.34;;;16.61;67.24
9187;BME280;7273;48.902;9.410;2023-07-31T05:27:12;97953.34;;;16.69;67.33
9187;BME280;7273;48.902;9.410;2023-07-31T05:29:40;97954.81;;;16.75;67.30
9187;BME280;7273;48.902;9.410;2023-07-31T05:32:06;97951.13;;;16.79;67.32
9187;BME280;7273;48.902;9.410;2023-07-31T05:34:33;97949.38;;;16.83;67.43
9187;BME280;7273;48.902;9.410;2023-07-31T05:36:58;97955.50;;;16.89;67.36
9187;BME280;7273;48.902;9.410;2023-07-31T05:39:23;97955.50;;;16.89;67.54
9187;BME280;7273;48.902;9.410;2023-07-31T05:41:49;97957.41;;;16.97;67.53
9187;BME280;7273;48.902;9.410;2023-07-31T05:44:14;97958.06;;;17.02;67.57
9187;BME280;7273;48.902;9.410;2023-07-31T05:46:39;97961.94;;;17.10;67.55
9187;BME280;7273;48.902;9.410;2023-07-31T05:49:05;97956.47;;;17.18;67.27
9187;BME280;7273;48.902;9.410;2023-07-31T05:51:30;97950.97;;;17.27;67.18
9187;BME280;7273;48.902;9.410;2023-07-31T05:53:56;97957.75;;;17.38;67.15
9187;BME280;7273;48.902;9.410;2023-07-31T05:56:21;97948.78;;;17.46;67.06
9187;BME280;7273;48.902;9.410;2023-07-31T05:58:46;97961.31;;;17.56;66.94
9187;BME280;7273;48.902;9.410;2023-07-31T06:01:15;97950.34;;;17.64;66.84
9187;BME280;7273;48.902;9.410;2023-07-31T06:03:40;97948.22;;;17.70;66.77
9187;BME280;7273;48.902;9.410;2023-07-31T06:06:06;97942.75;;;17.78;66.77
9187;BME280;7273;48.902;9.410;2023-07-31T06:08:31;97939.19;;;17.86;66.68
9187;BME280;7273;48.902;9.410;2023-07-31T06:10:57;97936.59;;;17.90;66.72
9187;BME280;7273;48.902;9.410;2023-07-31T06:13:23;97935.63;;;17.94;66.71
9187;BME280;7273;48.902;9.410;2023-07-31T06:15:48;97941.91;;;17.95;66.68
9187;BME280;7273;48.902;9.410;2023-07-31T06:18:13;97944.06;;;18.18;66.45
9187;BME280;7273;48.902;9.410;2023-07-31T06:20:39;97942.72;;;18.33;66.17
9187;BME280;7273;48.902;9.410;2023-07-31T06:23:05;97942.50;;;18.46;65.99
9187;BME280;7273;48.902;9.410;2023-07-31T06:25:31;97939.38;;;18.56;65.74
9187;BME280;7273;48.902;9.410;2023-07-31T06:27:56;97943.69;;;18.66;65.30
9187;BME280;7273;48.902;9.410;2023-07-31T06:30:22;97946.72;;;18.73;65.18
9187;BME280;7273;48.902;9.410;2023-07-31T06:32:47;97940.84;;;18.83;65.13
9187;BME280;7273;48.902;9.410;2023-07-31T06:35:12;97958.03;;;18.92;64.86
9187;BME280;7273;48.902;9.410;2023-07-31T06:37:38;97952.00;;;18.99;65.00
9187;BME280;7273;48.902;9.410;2023-07-31T06:40:06;97952.63;;;19.04;64.93
9187;BME280;7273;48.902;9.410;2023-07-31T06:42:34;97957.09;;;19.09;64.73
9187;BME280;7273;48.902;9.410;2023-07-31T06:45:00;97948.13;;;19.20;64.66
9187;BME280;7273;48.902;9.410;2023-07-31T06:47:25;97950.00;;;19.28;64.53
9187;BME280;7273;48.902;9.410;2023-07-31T06:49:51;97947.69;;;19.39;64.59
9187;BME280;7273;48.902;9.410;2023-07-31T06:52:16;97954.38;;;19.50;64.39
9187;BME280;7273;48.902;9.410;2023-07-31T06:54:42;97957.44;;;19.48;63.76
9187;BME280;7273;48.902;9.410;2023-07-31T06:57:07;97957.97;;;19.62;64.13
9187;BME280;7273;48.902;9.410;2023-07-31T06:59:33;97953.06;;;19.68;64.10
9187;BME280;7273;48.902;9.410;2023-07-31T07:01:58;97960.19;;;19.69;64.33
9187;BME280;7273;48.902;9.410;2023-07-31T07:04:24;97958.22;;;19.69;63.97
9187;BME280;7273;48.902;9.410;2023-07-31T07:06:49;97953.78;;;19.77;63.93
9187;BME280;7273;48.902;9.410;2023-07-31T07:09:14;97953.59;;;19.82;64.03
9187;BME280;7273;48.902;9.410;2023-07-31T07:11:40;97959.16;;;19.85;63.80
9187;BME280;7273;48.902;9.410;2023-07-31T07:14:05;97948.44;;;19.92;64.02
9187;BME280;7273;48.902;9.410;2023-07-31T07:16:31;97946.19;;;19.94;63.62
9187;BME280;7273;48.902;9.410;2023-07-31T07:18:56;97950.97;;;19.97;63.61
9187;BME280;7273;48.902;9.410;2023-07-31T07:21:21;97943.22;;;19.99;63.62
9187;BME280;7273;48.902;9.410;2023-07-31T07:23:47;97941.16;;;20.08;63.85
9187;BME280;7273;48.902;9.410;2023-07-31T07:26:12;97937.41;;;20.13;63.65
9187;BME280;7273;48.902;9.410;2023-07-31T07:28:37;97946.25;;;20.19;63.13
9187;BME280;7273;48.902;9.410;2023-07-31T07:31:03;97936.66;;;20.25;63.34
9187;BME280;7273;48.902;9.410;2023-07-31T07:33:29;97935.63;;;20.29;63.21
9187;BME280;7273;48.902;9.410;2023-07-31T07:35:54;97928.16;;;20.30;62.83
9187;BME280;7273;48.902;9.410;2023-07-31T07:38:19;97931.03;;;20.33;62.53
9187;BME280;7273;48.902;9.410;2023-07-31T07:40:46;97940.06;;;20.34;62.63
9187;BME280;7273;48.902;9.410;2023-07-31T07:43:15;97934.47;;;20.30;62.65
9187;BME280;7273;48.902;9.410;2023-07-31T07:45:41;97937.00;;;20.35;63.03
9187;BME280;7273;48.902;9.410;2023-07-31T07:48:06;97936.06;;;20.43;62.84
9187;BME280;7273;48.902;9.410;2023-07-31T07:50:31;97931.63;;;20.51;62.70
9187;BME280;7273;48.902;9.410;2023-07-31T07:52:58;97938.38;;;20.53;62.47
9187;BME280;7273;48.902;9.410;2023-07-31T07:55:23;97927.94;;;20.59;62.47
9187;BME280;7273;48.902;9.410;2023-07-31T07:57:48;97931.47;;;20.59;62.01
9187;BME280;7273;48.902;9.410;2023-07-31T08:00:15;97924.63;;;20.65;62.41
9187;BME280;7273;48.902;9.410;2023-07-31T08:02:42;97924.81;;;20.72;62.53
9187;BME280;7273;48.902;9.410;2023-07-31T08:05:08;97931.38;;;20.68;61.97
9187;BME280;7273;48.902;9.410;2023-07-31T08:07:33;97932.28;;;20.72;62.17
9187;BME280;7273;48.902;9.410;2023-07-31T08:09:58;97924.47;;;20.74;62.17
9187;BME280;7273;48.902;9.410;2023-07-31T08:12:24;97920.84;;;20.70;61.71
9187;BME280;7273;48.902;9.410;2023-07-31T08:14:49;97915.09;;;20.75;61.40
9187;BME280;7273;48.902;9.410;2023-07-31T08:17:14;97903.97;;;20.83;61.28
9187;BME280;7273;48.902;9.410;2023-07-31T08:19:40;97908.00;;;20.98;61.55
9187;BME280;7273;48.902;9.410;2023-07-31T08:22:05;97922.75;;;21.05;61.86
9187;BME280;7273;48.902;9.410;2023-07-31T08:24:31;97915.53;;;21.01;61.57
9187;BME280;7273;48.902;9.410;2023-07-31T08:26:56;97911.28;;;21.03;61.51
9187;BME280;7273;48.902;9.410;2023-07-31T08:29:22;97905.69;;;21.00;61.36
9187;BME280;7273;48.902;9.410;2023-07-31T08:31:47;97904.44;;;20.97;61.37
9187;BME280;7273;48.902;9.410;2023-07-31T08:34:13;97901.91;;;21.04;61.30
9187;BME280;7273;48.902;9.410;2023-07-31T08:36:38;97893.06;;;21.11;61.12
9187;BME280;7273;48.902;9.410;2023-07-31T08:39:04;97901.84;;;21.16;60.45
9187;BME280;7273;48.902;9.410;2023-07-31T08:41:29;97890.84;;;21.16;60.36
9187;BME280;7273;48.902;9.410;2023-07-31T08:43:55;97898.41;;;21.19;60.43
9187;BME280;7273;48.902;9.410;2023-07-31T08:46:22;97895.16;;;21.29;60.27
9187;BME280;7273;48.902;9.410;2023-07-31T08:48:48;97889.31;;;21.31;60.26
9187;BME280;7273;48.902;9.410;2023-07-31T08:51:16;97888.72;;;21.38;60.46
9187;BME280;7273;48.902;9.410;2023-07-31T08:53:42;97880.84;;;21.52;60.71
9187;BME280;7273;48.902;9.410;2023-07-31T08:56:07;97875.44;;;21.55;60.65
9187;BME280;7273;48.902;9.410;2023-07-31T08:58:35;97886.63;;;21.62;59.97
9187;BME280;7273;48.902;9.410;2023-07-31T09:01:04;97897.09;;;21.57;60.09
9187;BME280;7273;48.902;9.410;2023-07-31T09:03:33;97892.41;;;21.57;59.50
9187;BME280;7273;48.902;9.410;2023-07-31T09:05:59;97889.81;;;21.64;60.26
9187;BME280;7273;48.902;9.410;2023-07-31T09:08:26;97883.88;;;21.62;60.17
9187;BME280;7273;48.902;9.410;2023-07-31T09:10:54;97880.22;;;21.58;60.02
9187;BME280;7273;48.902;9.410;2023-07-31T09:13:20;97865.56;;;21.54;59.94
9187;BME280;7273;48.902;9.410;2023-07-31T09:15:46;97871.78;;;21.51;59.73
9187;BME280;7273;48.902;9.410;2023-07-31T09:18:12;97860.75;;;21.51;59.94
9187;BME280;7273;48.902;9.410;2023-07-31T09:20:39;97872.84;;;21.47;60.14
9187;BME280;7273;48.902;9.410;2023-07-31T09:23:10;97864.69;;;21.50;60.07
9187;BME280;7273;48.902;9.410;2023-07-31T09:25:37;97872.03;;;21.46;60.33
9187;BME280;7273;48.902;9.410;2023-07-31T09:28:07;97879.50;;;21.46;60.02
9187;BME280;7273;48.902;9.410;2023-07-31T09:30:50;97882.16;;;21.42;59.10
9187;BME280;7273;48.902;9.410;2023-07-31T09:33:16;97872.63;;;21.40;60.15
9187;BME280;7273;48.902;9.410;2023-07-31T09:35:42;97876.19;;;21.40;60.01
9187;BME280;7273;48.902;9.410;2023-07-31T09:38:12;97872.22;;;21.38;59.71
9187;BME280;7273;48.902;9.410;2023-07-31T09:40:43;97867.59;;;21.42;59.76
9187;BME280;7273;48.902;9.410;2023-07-31T09:43:17;97865.66;;;21.42;60.02
9187;BME280;7273;48.902;9.410;2023-07-31T09:45:43;97865.28;;;21.44;59.79
9187;BME280;7273;48.902;9.410;2023-07-31T09:50:37;97846.28;;;21.54;59.71
9187;BME280;7273;48.902;9.410;2023-07-31T09:53:03;97835.28;;;21.54;59.62
9187;BME280;7273;48.902;9.410;2023-07-31T09:55:29;97826.25;;;21.69;59.99
9187;BME280;7273;48.902;9.410;2023-07-31T09:57:57;97838.44;;;21.68;59.49
9187;BME280;7273;48.902;9.410;2023-07-31T10:00:23;97833.75;;;21.84;59.70
9187;BME280;7273;48.902;9.410;2023-07-31T10:02:52;97834.31;;;21.90;59.35
9187;BME280;7273;48.902;9.410;2023-07-31T10:05:19;97826.19;;;21.97;59.73
9187;BME280;7273;48.902;9.410;2023-07-31T10:07:53;97825.16;;;22.01;58.95
9187;BME280;7273;48.902;9.410;2023-07-31T10:10:21;97829.94;;;22.04;59.32
9187;BME280;7273;48.902;9.410;2023-07-31T10:12:51;97818.75;;;22.13;58.47
9187;BME280;7273;48.902;9.410;2023-07-31T10:15:18;97820.88;;;22.19;58.80
9187;BME280;7273;48.902;9.410;2023-07-31T10:17:43;97816.66;;;22.25;58.99
9187;BME280;7273;48.902;9.410;2023-07-31T10:20:09;97812.75;;;22.26;58.81
9187;BME280;7273;48.902;9.410;2023-07-31T10:22:35;97816.53;;;22.37;59.03
9187;BME280;7273;48.902;9.410;2023-07-31T10:25:01;97819.66;;;22.36;58.77
9187;BME280;7273;48.902;9.410;2023-07-31T10:27:27;97821.19;;;22.33;58.70
9187;BME280;7273;48.902;9.410;2023-07-31T10:29:55;97812.28;;;22.24;58.68
9187;BME280;7273;48.902;9.410;2023-07-31T10:32:22;97812.03;;;22.29;58.93
9187;BME280;7273;48.902;9.410;2023-07-31T10:34:48;97810.06;;;22.30;58.83
9187;BME280;7273;48.902;9.410;2023-07-31T10:37:28;97811.59;;;22.27;56.52
9187;BME280;7273;48.902;9.410;2023-07-31T10:40:03;97805.50;;;22.37;58.51
9187;BME280;7273;48.902;9.410;2023-07-31T10:42:37;97794.38;;;22.49;58.58
9187;BME280;7273;48.902;9.410;2023-07-31T10:45:07;97796.31;;;22.65;58.45
9187;BME280;7273;48.902;9.410;2023-07-31T10:47:46;97793.44;;;22.77;56.09
9187;BME280;7273;48.902;9.410;2023-07-31T10:50:13;97794.09;;;22.89;58.46
9187;BME280;7273;48.902;9.410;2023-07-31T10:52:39;97788.47;;;23.05;58.30
9187;BME280;7273;48.902;9.410;2023-07-31T10:55:25;97788.19;;;23.10;56.13
9187;BME280;7273;48.902;9.410;2023-07-31T10:57:51;97795.69;;;23.28;57.70
9187;BME280;7273;48.902;9.410;2023-07-31T11:00:22;97797.25;;;23.10;57.49
9187;BME280;7273;48.902;9.410;2023-07-31T11:03:01;97800.69;;;23.04;56.59
9187;BME280;7273;48.902;9.410;2023-07-31T11:08:22;97803.22;;;22.93;56.23
9187;BME280;7273;48.902;9.410;2023-07-31T11:10:51;97787.63;;;23.01;57.87
9187;BME280;7273;48.902;9.410;2023-07-31T11:16:15;97773.53;;;23.47;56.81
9187;BME280;7273;48.902;9.410;2023-07-31T11:18:45;97773.97;;;24.17;55.47
9187;BME280;7273;48.902;9.410;2023-07-31T11:21:18;97772.44;;;24.49;55.39
9187;BME280;7273;48.902;9.410;2023-07-31T11:23:56;97787.47;;;25.07;53.13
9187;BME280;7273;48.902;9.410;2023-07-31T11:26:23;97772.09;;;25.47;55.57
9187;BME280;7273;48.902;9.410;2023-07-31T11:28:50;97761.28;;;25.35;56.15
9187;BME280;7273;48.902;9.410;2023-07-31T11:31:15;97777.75;;;25.24;56.27
9187;BME280;7273;48.902;9.410;2023-07-31T11:33:41;97778.22;;;24.96;55.79
9187;BME280;7273;48.902;9.410;2023-07-31T11:36:14;97779.91;;;24.75;55.33
9187;BME280;7273;48.902;9.410;2023-07-31T11:38:39;97778.09;;;24.56;56.32
9187;BME280;7273;48.902;9.410;2023-07-31T11:41:05;97776.34;;;24.45;56.39
9187;BME280;7273;48.902;9.410;2023-07-31T11:43:31;97763.91;;;24.32;56.54
9187;BME280;7273;48.902;9.410;2023-07-31T11:45:58;97756.31;;;24.25;56.71
9187;BME280;7273;48.902;9.410;2023-07-31T11:48:26;97747.47;;;24.16;56.89
9187;BME280;7273;48.902;9.410;2023-07-31T11:50:53;97744.06;;;24.00;51.20
9187;BME280;7273;48.902;9.410;2023-07-31T11:53:22;97747.88;;;23.92;57.06
9187;BME280;7273;48.902;9.410;2023-07-31T11:55:50;97742.22;;;23.85;57.35
9187;BME280;7273;48.902;9.410;2023-07-31T11:58:16;97726.88;;;23.61;57.42
9187;BME280;7273;48.902;9.410;2023-07-31T12:00:42;97741.78;;;23.57;57.34
9187;BME280;7273;48.902;9.410;2023-07-31T12:03:08;97742.25;;;23.40;57.31
9187;BME280;7273;48.902;9.410;2023-07-31T12:05:33;97734.78;;;23.40;57.30
9187;BME280;7273;48.902;9.410;2023-07-31T12:07:59;97726.66;;;23.51;57.32
9187;BME280;7273;48.902;9.410;2023-07-31T12:10:31;97721.81;;;23.44;56.24
9187;BME280;7273;48.902;9.410;2023-07-31T12:13:11;97721.09;;;23.47;56.83
9187;BME280;7273;48.902;9.410;2023-07-31T12:15:44;97718.69;;;23.46;56.84
9187;BME280;7273;48.902;9.410;2023-07-31T12:18:14;97716.81;;;23.50;57.05
9187;BME280;7273;48.902;9.410;2023-07-31T12:20:44;97703.81;;;23.50;56.72
9187;BME280;7273;48.902;9.410;2023-07-31T12:25:40;97701.44;;;23.52;57.01
9187;BME280;7273;48.902;9.410;2023-07-31T12:28:06;97695.75;;;23.64;56.89
9187;BME280;7273;48.902;9.410;2023-07-31T12:30:37;97700.38;;;23.57;57.04
9187;BME280;7273;48.902;9.410;2023-07-31T12:33:07;97702.19;;;23.49;56.34
9187;BME280;7273;48.902;9.410;2023-07-31T12:35:37;97696.53;;;23.42;51.86
9187;BME280;7273;48.902;9.410;2023-07-31T12:38:03;97698.69;;;23.52;56.42
9187;BME280;7273;48.902;9.410;2023-07-31T12:40:28;97695.56;;;23.54;56.49
9187;BME280;7273;48.902;9.410;2023-07-31T12:42:53;97694.78;;;23.53;56.79
9187;BME280;7273;48.902;9.410;2023-07-31T12:45:19;97679.72;;;23.51;56.57
9187;BME280;7273;48.902;9.410;2023-07-31T12:47:46;97676.91;;;23.47;56.40
9187;BME280;7273;48.902;9.410;2023-07-31T12:50:11;97675.38;;;23.50;56.11
9187;BME280;7273;48.902;9.410;2023-07-31T12:52:36;97666.97;;;23.43;56.30
9187;BME280;7273;48.902;9.410;2023-07-31T12:55:02;97665.19;;;23.54;56.23
9187;BME280;7273;48.902;9.410;2023-07-31T12:57:27;97667.09;;;23.50;56.45
9187;BME280;7273;48.902;9.410;2023-07-31T12:59:53;97667.72;;;23.40;55.93
9187;BME280;7273;48.902;9.410;2023-07-31T13:02:18;97665.66;;;23.33;55.96
9187;BME280;7273;48.902;9.410;2023-07-31T13:04:43;97656.19;;;23.34;56.18
9187;BME280;7273;48.902;9.410;2023-07-31T13:07:09;97660.88;;;23.30;56.20
9187;BME280;7273;48.902;9.410;2023-07-31T13:09:34;97653.22;;;23.24;56.40
9187;BME280;7273;48.902;9.410;2023-07-31T13:12:00;97646.47;;;23.21;56.47
9187;BME280;7273;48.902;9.410;2023-07-31T13:14:25;97644.69;;;23.10;56.41
9187;BME280;7273;48.902;9.410;2023-07-31T13:16:50;97643.91;;;23.09;56.21
9187;BME280;7273;48.902;9.410;2023-07-31T13:19:16;97636.78;;;23.08;56.34
9187;BME280;7273;48.902;9.410;2023-07-31T13:21:41;97645.38;;;23.03;56.33
9187;BME280;7273;48.902;9.410;2023-07-31T13:24:06;97640.28;;;23.05;56.34
9187;BME280;7273;48.902;9.410;2023-07-31T13:26:32;97635.44;;;22.99;56.27
9187;BME280;7273;48.902;9.410;2023-07-31T13:28:57;97635.44;;;22.99;56.23
9187;BME280;7273;48.902;9.410;2023-07-31T13:31:23;97640.91;;;22.95;56.49
9187;BME280;7273;48.902;9.410;2023-07-31T13:33:48;97633.19;;;22.82;56.15